createdAt,value
2019-04-06T00:00:58.165Z,68.47
2019-04-06T00:03:31.147Z,66.02
2019-04-06T00:06:04.229Z,63.50
2019-04-06T00:08:36.848Z,62.03
2019-04-06T00:11:09.390Z,66.35
2019-04-06T00:13:43.014Z,66.62
2019-04-06T00:16:16.287Z,70.90
2019-04-06T00:18:50.479Z,64.85
2019-04-06T00:21:23.410Z,68.87
2019-04-06T00:23:56.783Z,63.45
2019-04-06T00:26:29.804Z,64.12
2019-04-06T00:29:04.541Z,61.58
2019-04-06T00:31:43.534Z,60.03
2019-04-06T00:34:17.450Z,58.70
2019-04-06T00:36:51.016Z,66.12
2019-04-06T00:39:24.492Z,69.47
2019-04-06T00:41:57.979Z,66.42
2019-04-06T00:44:31.336Z,65.57
2019-04-06T00:47:04.632Z,66.55
2019-04-06T00:49:37.540Z,66.30
2019-04-06T00:52:10.076Z,62.10
2019-04-06T00:54:42.935Z,66.20
2019-04-06T00:57:16.520Z,68.87
2019-04-06T00:59:50.388Z,66.00
2019-04-06T01:02:25.178Z,67.58
2019-04-06T01:04:58.097Z,66.62
2019-04-06T01:07:30.723Z,67.37
2019-04-06T01:10:04.193Z,69.12
2019-04-06T01:12:37.221Z,66.00
2019-04-06T01:15:10.369Z,69.58
2019-04-06T01:17:43.821Z,67.85
2019-04-06T01:20:16.724Z,66.50
2019-04-06T01:22:49.687Z,67.62
2019-04-06T01:25:22.714Z,66.07
2019-04-06T01:27:56.234Z,68.52
2019-04-06T01:30:29.702Z,67.72
2019-04-06T01:33:02.765Z,63.70
2019-04-06T01:35:36.137Z,67.03
2019-04-06T01:38:08.911Z,67.32
2019-04-06T01:40:41.941Z,71.72
2019-04-06T01:43:15.389Z,67.17
2019-04-06T01:45:48.941Z,67.67
2019-04-06T01:48:21.995Z,70.12
2019-04-06T01:50:56.429Z,71.07
2019-04-06T01:53:29.100Z,72.80
2019-04-06T01:56:02.890Z,68.17
2019-04-06T01:58:36.675Z,69.37
2019-04-06T02:01:31.938Z,65.78
2019-04-06T02:04:04.670Z,67.67
2019-04-06T02:06:37.707Z,65.50
2019-04-06T02:09:10.684Z,64.85
2019-04-06T02:11:44.100Z,65.08
2019-04-06T02:14:19.834Z,61.85
2019-04-06T02:16:53.412Z,63.30
2019-04-06T02:19:26.385Z,63.60
2019-04-06T02:21:59.370Z,59.65
2019-04-06T02:24:32.779Z,65.78
2019-04-06T02:27:05.876Z,63.83
2019-04-06T02:29:39.062Z,69.58
2019-04-06T02:32:38.023Z,66.97
2019-04-06T02:35:36.763Z,66.77
2019-04-06T02:38:44.213Z,62.27
2019-04-06T02:41:22.545Z,64.05
2019-04-06T02:43:55.941Z,61.68
2019-04-06T02:46:31.166Z,64.35
2019-04-06T02:49:04.501Z,65.80
2019-04-06T02:51:37.801Z,66.20
2019-04-06T02:54:10.434Z,61.88
2019-04-06T02:56:46.369Z,67.87
2019-04-06T02:59:17.608Z,61.90
2019-04-06T03:01:51.011Z,63.45
2019-04-06T03:04:24.001Z,63.92
2019-04-06T03:06:57.851Z,64.35
2019-04-06T03:09:30.447Z,60.28
2019-04-06T03:12:03.768Z,59.98
2019-04-06T03:14:36.496Z,66.07
2019-04-06T03:17:09.814Z,60.40
2019-04-06T03:19:43.923Z,70.83
2019-04-06T03:22:17.454Z,59.00
2019-04-06T03:24:50.459Z,64.35
2019-04-06T03:27:24.199Z,68.05
2019-04-06T03:29:59.166Z,64.45
2019-04-06T03:32:32.937Z,66.92
2019-04-06T03:35:06.121Z,65.42
2019-04-06T03:37:39.922Z,67.92
2019-04-06T03:40:13.456Z,62.75
2019-04-06T03:42:46.760Z,70.65
2019-04-06T03:45:20.142Z,66.72
2019-04-06T03:47:53.886Z,72.80
2019-04-06T03:50:27.777Z,63.08
2019-04-06T03:53:00.953Z,70.37
2019-04-06T03:55:33.343Z,64.40
2019-04-06T03:58:06.411Z,65.83
2019-04-06T04:00:39.413Z,65.03
2019-04-06T04:03:13.054Z,65.32
2019-04-06T04:05:46.089Z,68.85
2019-04-06T04:08:19.988Z,63.38
2019-04-06T04:10:52.208Z,65.15
2019-04-06T04:13:25.769Z,64.10
2019-04-06T04:15:59.761Z,67.70
2019-04-06T04:18:33.165Z,65.60
2019-04-06T04:21:09.039Z,65.70
2019-04-06T04:23:42.019Z,63.92
2019-04-06T04:26:15.158Z,65.17
2019-04-06T04:28:48.619Z,66.67
2019-04-06T04:31:21.851Z,66.75
2019-04-06T04:33:55.098Z,65.65
2019-04-06T04:36:28.937Z,64.37
2019-04-06T04:39:03.586Z,66.85
2019-04-06T04:41:39.389Z,69.70
2019-04-06T04:44:12.374Z,65.28
2019-04-06T04:46:44.961Z,65.70
2019-04-06T04:49:18.372Z,71.02
2019-04-06T04:51:51.729Z,62.03
2019-04-06T04:54:24.315Z,66.20
2019-04-06T04:56:57.312Z,65.10
2019-04-06T04:59:30.707Z,64.25
2019-04-06T05:02:05.826Z,66.65
2019-04-06T05:04:38.755Z,67.10
2019-04-06T05:07:11.302Z,64.03
2019-04-06T05:09:44.724Z,66.80
2019-04-06T05:12:18.714Z,62.62
2019-04-06T05:15:02.388Z,66.77
2019-04-06T05:17:35.919Z,65.65
2019-04-06T05:20:08.829Z,61.25
2019-04-06T05:22:41.792Z,66.42
2019-04-06T05:25:15.046Z,67.53
2019-04-06T05:27:52.696Z,65.10
2019-04-06T05:30:22.237Z,60.98
2019-04-06T05:32:55.189Z,62.10
2019-04-06T05:35:28.099Z,63.02
2019-04-06T05:38:01.599Z,62.95
2019-04-06T05:40:34.552Z,61.70
2019-04-06T05:43:08.101Z,63.28
2019-04-06T05:45:41.778Z,64.32
2019-04-06T05:48:15.281Z,63.55
2019-04-06T05:50:49.449Z,67.45
2019-04-06T05:53:22.689Z,63.87
2019-04-06T05:55:55.662Z,61.45
2019-04-06T05:58:28.268Z,59.48
2019-04-06T06:01:03.891Z,58.08
2019-04-06T06:03:40.141Z,57.17
2019-04-06T06:06:12.775Z,61.00
2019-04-06T06:08:46.685Z,55.30
2019-04-06T06:11:19.535Z,55.12
2019-04-06T06:13:52.547Z,54.60
2019-04-06T06:16:26.079Z,53.60
2019-04-06T06:19:00.853Z,53.42
2019-04-06T06:21:34.165Z,52.33
2019-04-06T06:24:07.180Z,50.58
2019-04-06T06:26:39.738Z,53.33
2019-04-06T06:29:13.519Z,55.63
2019-04-06T06:31:46.584Z,49.70
2019-04-06T06:34:18.875Z,53.10
2019-04-06T06:36:52.329Z,47.58
2019-04-06T06:39:26.002Z,49.38
2019-04-06T06:41:59.225Z,48.35
2019-04-06T06:44:31.447Z,51.55
2019-04-06T06:47:04.514Z,47.78
2019-04-06T06:49:37.743Z,48.42
2019-04-06T06:52:10.661Z,47.38
2019-04-06T06:54:44.506Z,50.48
2019-04-06T06:57:18.333Z,48.80
2019-04-06T06:59:52.153Z,46.15
2019-04-06T07:02:25.233Z,50.80
2019-04-06T07:04:58.684Z,47.83
2019-04-06T07:07:31.364Z,47.78
2019-04-06T07:10:06.242Z,46.55
2019-04-06T07:12:40.070Z,49.23
2019-04-06T07:15:13.636Z,45.12
2019-04-06T07:17:46.482Z,48.50
2019-04-06T07:20:19.645Z,48.45
2019-04-06T07:22:52.615Z,47.25
2019-04-06T07:25:25.386Z,46.33
2019-04-06T07:27:58.958Z,49.83
2019-04-06T07:30:32.404Z,49.38
2019-04-06T07:33:05.100Z,45.35
2019-04-06T07:35:38.169Z,49.42
2019-04-06T07:38:10.794Z,48.85
2019-04-06T07:40:44.237Z,46.40
2019-04-06T07:43:17.231Z,47.55
2019-04-06T07:45:50.737Z,47.05
2019-04-06T07:48:24.440Z,50.25
2019-04-06T07:50:57.836Z,47.90
2019-04-06T07:53:31.342Z,47.13
2019-04-06T07:56:04.230Z,48.30
2019-04-06T07:58:48.024Z,44.67
2019-04-06T08:01:14.040Z,47.50
2019-04-06T08:03:47.231Z,46.58
2019-04-06T08:06:20.969Z,46.37
2019-04-06T08:08:54.739Z,45.12
2019-04-06T08:11:27.408Z,46.35
2019-04-06T08:14:00.971Z,46.92
2019-04-06T08:16:34.301Z,45.90
2019-04-06T08:19:07.246Z,45.60
2019-04-06T08:21:40.857Z,46.40
2019-04-06T08:24:14.286Z,44.13
2019-04-06T08:26:46.971Z,44.55
2019-04-06T08:29:19.865Z,42.67
2019-04-06T08:31:53.254Z,43.63
2019-04-06T08:34:27.126Z,41.60
2019-04-06T08:37:00.162Z,42.05
2019-04-06T08:39:33.341Z,41.15
2019-04-06T08:42:06.571Z,50.25
2019-04-06T08:44:40.416Z,44.25
2019-04-06T08:47:13.462Z,45.83
2019-04-06T08:49:47.036Z,42.33
2019-04-06T08:52:20.194Z,42.65
2019-04-06T08:54:53.786Z,42.85
2019-04-06T08:57:27.728Z,42.53
2019-04-06T09:00:00.404Z,41.70
2019-04-06T09:02:34.014Z,41.20
2019-04-06T09:05:07.483Z,40.52
2019-04-06T09:07:40.929Z,42.40
2019-04-06T09:10:14.701Z,44.60
2019-04-06T09:12:48.085Z,42.08
2019-04-06T09:15:20.784Z,39.90
2019-04-06T09:17:53.473Z,38.13
2019-04-06T09:20:26.629Z,41.75
2019-04-06T09:23:00.298Z,40.10
2019-04-06T09:25:34.882Z,38.80
2019-04-06T09:28:08.372Z,37.48
2019-04-06T09:30:41.751Z,39.38
2019-04-06T09:33:14.311Z,41.58
2019-04-06T09:35:47.156Z,38.78
2019-04-06T09:38:20.209Z,40.20
2019-04-06T09:40:55.397Z,40.03
2019-04-06T09:43:29.119Z,38.38
2019-04-06T09:46:27.530Z,38.33
2019-04-06T09:49:22.774Z,38.08
2019-04-06T09:52:30.790Z,39.88
2019-04-06T09:55:25.199Z,38.10
2019-04-06T09:58:14.014Z,37.53
2019-04-06T10:01:01.760Z,36.33
2019-04-06T10:04:00.883Z,34.33
2019-04-06T10:06:56.794Z,38.70
2019-04-06T10:09:45.945Z,41.13
2019-04-06T10:12:35.826Z,38.60
2019-04-06T10:15:19.465Z,36.20
2019-04-06T10:18:14.549Z,37.50
2019-04-06T10:21:06.927Z,41.63
2019-04-06T10:24:02.195Z,38.83
2019-04-06T10:27:04.317Z,37.73
2019-04-06T10:30:02.377Z,38.47
2019-04-06T10:32:47.776Z,36.87
2019-04-06T10:35:58.193Z,37.20
2019-04-06T10:39:02.944Z,37.57
2019-04-06T10:41:57.746Z,36.50
2019-04-06T10:44:53.969Z,36.10
2019-04-06T10:47:49.887Z,37.90
2019-04-06T10:50:42.432Z,38.00
2019-04-06T10:53:40.759Z,39.17
2019-04-06T10:56:35.503Z,35.40
2019-04-06T10:59:31.149Z,36.43
2019-04-06T11:02:22.242Z,38.07
2019-04-06T11:05:15.328Z,33.60
2019-04-06T11:07:53.737Z,34.40
2019-04-06T11:10:52.637Z,33.50
2019-04-06T11:13:43.343Z,32.20
2019-04-06T11:16:38.615Z,30.93
2019-04-06T11:19:37.203Z,35.60
2019-04-06T11:22:32.333Z,34.33
2019-04-06T11:25:25.084Z,33.27
2019-04-06T11:28:17.415Z,33.27
2019-04-06T11:31:05.181Z,35.40
2019-04-06T11:33:53.486Z,34.87
2019-04-06T11:36:54.024Z,34.13
2019-04-06T11:39:44.959Z,34.70
2019-04-06T11:42:24.893Z,34.33
2019-04-06T11:45:05.261Z,36.43
2019-04-06T11:48:00.968Z,35.03
2019-04-06T11:51:02.957Z,35.10
2019-04-06T11:53:54.721Z,33.20
2019-04-06T11:56:40.646Z,34.20
2019-04-06T11:59:48.897Z,31.63
2019-04-06T12:02:39.031Z,34.93
2019-04-06T12:05:40.259Z,32.60
2019-04-06T12:08:36.322Z,31.90
2019-04-06T12:11:49.527Z,34.50
2019-04-06T12:14:45.805Z,34.37
2019-04-06T12:17:31.126Z,30.27
2019-04-06T12:20:14.130Z,30.83
2019-04-06T12:23:25.247Z,31.10
2019-04-06T12:26:16.372Z,32.00
2019-04-06T12:29:18.539Z,29.70
2019-04-06T12:32:05.726Z,29.80
2019-04-06T12:35:10.780Z,27.90
2019-04-06T12:38:07.022Z,28.27
2019-04-06T12:41:02.530Z,31.33
2019-04-06T12:43:55.209Z,28.03
2019-04-06T12:46:42.052Z,27.00
2019-04-06T12:49:28.946Z,26.83
2019-04-06T12:52:10.743Z,27.13
2019-04-06T12:54:51.684Z,27.30
2019-04-06T12:57:31.935Z,27.43
2019-04-06T13:00:31.154Z,27.30
2019-04-06T13:03:23.423Z,25.60
2019-04-06T13:06:06.567Z,25.40
2019-04-06T13:08:54.815Z,26.50
2019-04-06T13:11:51.059Z,30.73
2019-04-06T13:14:30.780Z,24.70
2019-04-06T13:17:29.197Z,27.33
2019-04-06T13:20:25.520Z,28.13
2019-04-06T13:23:20.838Z,26.53
2019-04-06T13:26:09.770Z,23.60
2019-04-06T13:29:02.323Z,26.10
2019-04-06T13:31:49.699Z,25.57
2019-04-06T13:34:41.428Z,25.80
2019-04-06T13:37:32.566Z,25.97
2019-04-06T13:40:21.673Z,24.80
2019-04-06T13:43:10.692Z,26.60
2019-04-06T13:45:53.452Z,25.77
2019-04-06T13:48:49.554Z,29.53
2019-04-06T13:51:42.219Z,26.00
2019-04-06T13:54:33.800Z,26.73
2019-04-06T13:57:41.165Z,25.43
2019-04-06T14:00:52.659Z,25.70
2019-04-06T14:03:45.068Z,26.80
2019-04-06T14:06:34.666Z,27.90
2019-04-06T14:09:25.954Z,27.50
2019-04-06T14:12:07.095Z,25.07
2019-04-06T14:15:12.032Z,27.40
2019-04-06T14:18:18.753Z,25.03
2019-04-06T14:21:23.110Z,26.30
2019-04-06T14:24:07.075Z,26.47
2019-04-06T14:26:59.603Z,29.23
2019-04-06T14:29:48.544Z,32.20
2019-04-06T14:32:46.035Z,26.90
2019-04-06T14:35:35.342Z,27.40
2019-04-06T14:38:41.135Z,25.37
2019-04-06T14:41:43.219Z,24.00
2019-04-06T14:44:45.114Z,24.13
2019-04-06T14:47:56.138Z,23.23
2019-04-06T14:51:00.973Z,22.43
2019-04-06T14:53:43.487Z,26.77
2019-04-06T14:56:36.218Z,20.73
2019-04-06T14:59:23.478Z,20.93
2019-04-06T15:02:12.861Z,20.60
2019-04-06T15:04:55.827Z,19.87
2019-04-06T15:07:35.725Z,18.80
2019-04-06T15:10:28.927Z,20.40
2019-04-06T15:13:08.927Z,18.53
2019-04-06T15:16:01.948Z,16.20
2019-04-06T18:12:06.417Z,28.57
2019-04-06T18:14:40.445Z,26.30
2019-04-06T18:17:13.968Z,26.00
2019-04-06T18:19:51.140Z,28.50
2019-04-06T18:22:24.499Z,27.50
2019-04-06T18:24:58.493Z,26.93
2019-04-06T18:27:32.883Z,29.03
2019-04-06T18:30:07.366Z,26.70
2019-04-06T18:32:58.327Z,26.07
2019-04-06T18:35:23.373Z,28.57
2019-04-06T18:38:07.880Z,25.00
2019-04-06T18:40:41.503Z,27.30
2019-04-06T18:43:18.501Z,27.10
2019-04-06T18:45:52.135Z,27.77
2019-04-06T18:48:25.799Z,27.00
2019-04-06T18:50:58.391Z,27.93
2019-04-06T18:53:32.131Z,27.33
2019-04-06T18:56:07.100Z,27.85
2019-04-06T18:58:41.113Z,28.00
2019-04-06T19:01:14.612Z,28.50
2019-04-06T19:03:48.035Z,27.10
2019-04-06T19:06:21.580Z,26.60
2019-04-06T19:08:55.120Z,28.73
2019-04-06T19:11:29.426Z,27.37
2019-04-06T19:14:02.038Z,28.57
2019-04-06T19:16:35.713Z,27.52
2019-04-06T19:19:09.950Z,28.00
2019-04-06T19:21:43.554Z,29.12
2019-04-06T19:24:16.619Z,27.70
2019-04-06T19:26:50.245Z,28.98
2019-04-06T19:29:23.959Z,27.87
2019-04-06T19:31:58.355Z,27.13
2019-04-06T19:34:32.966Z,27.90
2019-04-06T19:37:08.752Z,27.50
2019-04-06T19:39:42.566Z,29.10
2019-04-06T19:42:16.464Z,26.90
2019-04-06T19:44:50.062Z,27.75
2019-04-06T19:47:23.588Z,28.33
2019-04-06T19:49:57.151Z,28.85
2019-04-06T19:52:30.351Z,27.58
2019-04-06T19:55:03.341Z,28.35
2019-04-06T19:57:37.283Z,27.48
2019-04-06T20:00:11.326Z,29.23
2019-04-06T20:02:44.774Z,26.85
2019-04-06T20:05:17.335Z,26.90
2019-04-06T20:07:51.448Z,28.75
2019-04-06T20:10:24.816Z,28.25
2019-04-06T20:12:57.766Z,30.25
2019-04-06T20:15:31.223Z,28.98
2019-04-06T20:18:04.519Z,28.33
2019-04-06T20:20:38.726Z,29.98
2019-04-06T20:23:12.122Z,29.48
2019-04-06T20:25:48.726Z,28.73
2019-04-06T20:28:22.225Z,29.60
2019-04-06T20:30:55.789Z,27.85
2019-04-06T20:33:28.459Z,30.08
2019-04-06T20:36:02.478Z,30.37
2019-04-06T20:38:35.748Z,28.60
2019-04-06T20:41:09.805Z,29.95
2019-04-06T20:43:43.077Z,28.75
2019-04-06T20:46:16.184Z,28.85
2019-04-06T20:48:49.374Z,32.17
2019-04-06T20:51:22.632Z,30.72
2019-04-06T20:53:56.351Z,29.52
2019-04-06T20:56:29.822Z,30.25
2019-04-06T20:59:03.966Z,28.20
2019-04-06T21:01:37.158Z,28.32
2019-04-06T21:04:10.478Z,28.38
2019-04-06T21:06:43.743Z,29.48
2019-04-06T21:09:17.113Z,26.25
2019-04-06T21:11:51.075Z,28.83
2019-04-06T21:14:24.345Z,28.23
2019-04-06T21:17:00.164Z,28.67
2019-04-06T21:19:33.187Z,29.48
2019-04-06T21:22:06.937Z,29.23
2019-04-06T21:24:40.352Z,28.90
2019-04-06T21:27:15.229Z,28.38
2019-04-06T21:29:49.615Z,29.95
2019-04-06T21:32:23.385Z,29.85
2019-04-06T21:34:57.259Z,31.93
2019-04-06T21:37:32.458Z,33.28
2019-04-06T21:40:06.902Z,36.25
2019-04-06T21:42:40.983Z,34.78
2019-04-06T21:45:14.132Z,35.10
2019-04-06T21:47:47.817Z,36.60
2019-04-06T21:50:21.910Z,35.78
2019-04-06T21:52:55.916Z,36.00
2019-04-06T21:55:28.639Z,33.95
2019-04-06T21:58:03.003Z,34.45
2019-04-06T22:00:52.504Z,35.05
2019-04-06T22:03:26.093Z,34.45
2019-04-06T22:05:59.942Z,35.05
2019-04-06T22:08:33.207Z,53.90
2019-04-06T22:11:07.228Z,48.68
2019-04-06T22:13:40.910Z,42.58
2019-04-06T22:16:14.054Z,47.23
2019-04-06T22:18:49.823Z,43.33
2019-04-06T22:21:23.864Z,40.40
2019-04-06T22:23:57.911Z,37.73
2019-04-06T22:26:30.733Z,36.63
2019-04-06T22:29:04.779Z,35.60
2019-04-06T22:31:38.254Z,36.17
2019-04-06T22:34:12.576Z,36.60
2019-04-06T22:36:45.852Z,36.03
2019-04-06T22:39:19.111Z,35.40
2019-04-06T22:41:53.684Z,38.02
2019-04-06T22:44:27.054Z,48.25
2019-04-06T22:47:00.855Z,41.37
2019-04-06T22:49:33.948Z,45.08
2019-04-06T22:52:07.114Z,49.15
2019-04-06T22:54:43.579Z,42.03
2019-04-06T22:57:17.164Z,43.50
2019-04-06T22:59:49.818Z,41.68
2019-04-06T23:02:22.931Z,41.40
2019-04-06T23:05:03.033Z,48.38
2019-04-06T23:07:36.207Z,41.25
2019-04-06T23:10:09.189Z,39.27
2019-04-06T23:12:43.887Z,41.00
2019-04-06T23:15:17.900Z,43.02
2019-04-06T23:17:51.463Z,40.90
2019-04-06T23:20:25.443Z,43.25
2019-04-06T23:22:59.444Z,46.10
2019-04-06T23:25:33.714Z,51.33
2019-04-06T23:28:07.064Z,46.75
2019-04-06T23:30:39.749Z,43.87
2019-04-06T23:33:13.264Z,37.95
2019-04-06T23:35:46.327Z,41.08
2019-04-06T23:38:20.116Z,41.83
2019-04-06T23:40:53.566Z,42.10
2019-04-06T23:43:26.771Z,43.45
2019-04-06T23:45:59.921Z,42.40
2019-04-06T23:48:32.919Z,43.30
2019-04-06T23:51:05.278Z,41.30
2019-04-06T23:53:38.793Z,39.00
2019-04-06T23:56:12.144Z,43.80
2019-04-06T23:58:47.040Z,37.35
